Time,TemperatureF,DewpointF,PressureIn,WindDirection,WindDirectionDegrees,WindSpeedMPH,WindSpeedGustMPH,Humidity,HourlyPrecipIn,Conditions,Clouds,dailyrainin,SoftwareType,DateUTC
2013-11-16 00:06:00,39.9,36.4,29.46,SSE,157,2.2,-999.0,87,-99.99,,,0.00,Acu-Link.com,2013-11-16 06:06:00,
2013-11-16 00:22:00,39.7,36.4,29.46,SSE,157,4.7,-999.0,88,-99.99,,,0.00,Acu-Link.com,2013-11-16 06:22:00,
2013-11-16 00:37:00,40.6,37.3,29.45,SSE,157,5.8,-999.0,88,-99.99,,,0.00,Acu-Link.com,2013-11-16 06:37:00,
2013-11-16 00:53:00,40.8,37.5,29.44,South,180,4.7,-999.0,88,-99.99,,,0.00,Acu-Link.com,2013-11-16 06:53:00,
2013-11-16 01:08:00,40.8,37.8,29.43,SSE,157,3.2,-999.0,89,-99.99,,,0.00,Acu-Link.com,2013-11-16 07:08:00,
2013-11-16 01:24:00,40.8,38.1,29.42,SE,135,3.7,-999.0,90,-99.99,,,0.00,Acu-Link.com,2013-11-16 07:24:00,
2013-11-16 01:39:00,41.2,38.5,29.43,ESE,112,6.3,-999.0,90,-99.99,,,0.00,Acu-Link.com,2013-11-16 07:39:00,
2013-11-16 01:54:00,41.2,38.5,29.41,SSE,157,4.2,-999.0,90,-99.99,,,0.00,Acu-Link.com,2013-11-16 07:54:00,
2013-11-16 02:09:00,41.0,38.6,29.41,SSE,157,8.3,-999.0,91,-99.99,,,0.00,Acu-Link.com,2013-11-16 08:09:00,
2013-11-16 02:24:00,41.5,39.4,29.41,SSE,157,7.8,-999.0,92,-99.99,,,0.00,Acu-Link.com,2013-11-16 08:24:00,
2013-11-16 02:40:00,41.5,39.4,29.40,SSE,157,6.3,-999.0,92,-99.99,,,0.00,Acu-Link.com,2013-11-16 08:40:00,
2013-11-16 02:55:00,41.9,40.0,29.40,SSE,157,6.3,-999.0,93,-99.99,,,0.00,Acu-Link.com,2013-11-16 08:55:00,
2013-11-16 03:10:00,41.9,40.3,29.39,SSE,157,5.3,-999.0,94,-99.99,,,0.00,Acu-Link.com,2013-11-16 09:10:00,
2013-11-16 03:26:00,42.3,40.7,29.38,SSE,157,6.8,-999.0,94,-99.99,,,0.00,Acu-Link.com,2013-11-16 09:26:00,
2013-11-16 03:41:00,42.6,41.3,29.37,South,180,4.2,-999.0,95,-99.99,,,0.00,Acu-Link.com,2013-11-16 09:41:00,
2013-11-16 03:56:00,45.0,43.7,29.36,SSE,157,8.3,-999.0,95,-99.99,,,0.00,Acu-Link.com,2013-11-16 09:56:00,
2013-11-16 04:11:00,46.0,44.4,29.35,SSE,157,6.8,-999.0,94,-99.99,,,0.00,Acu-Link.com,2013-11-16 10:11:00,
2013-11-16 04:26:00,46.6,45.0,29.35,SSE,157,4.7,-999.0,94,-99.99,,,0.00,Acu-Link.com,2013-11-16 10:26:00,
2013-11-16 04:42:00,46.9,45.0,29.34,SE,135,6.8,-999.0,93,-99.99,,,0.00,Acu-Link.com,2013-11-16 10:42:00,
2013-11-16 04:57:00,47.3,45.4,29.34,SSE,157,4.7,-999.0,93,-99.99,,,0.00,Acu-Link.com,2013-11-16 10:57:00,
2013-11-16 05:12:00,47.8,45.9,29.34,SSW,202,6.3,-999.0,93,-99.99,,,0.00,Acu-Link.com,2013-11-16 11:12:00,
2013-11-16 05:27:00,48.4,46.2,29.33,SSE,157,6.3,-999.0,92,-99.99,,,0.00,Acu-Link.com,2013-11-16 11:27:00,
2013-11-16 05:43:00,48.4,46.2,29.32,SSE,157,8.3,-999.0,92,-99.99,,,0.00,Acu-Link.com,2013-11-16 11:43:00,
2013-11-16 05:58:00,48.6,46.4,29.31,SSE,157,8.3,-999.0,92,-99.99,,,0.00,Acu-Link.com,2013-11-16 11:58:00,
2013-11-16 06:13:00,48.7,46.5,29.31,SSW,202,5.8,-999.0,92,-99.99,,,0.00,Acu-Link.com,2013-11-16 12:13:00,
2013-11-16 06:28:00,49.1,46.9,29.30,SSE,157,9.9,-999.0,92,-99.99,,,0.00,Acu-Link.com,2013-11-16 12:28:00,
2013-11-16 06:43:00,49.3,47.1,29.29,SSE,157,7.3,-999.0,92,-99.99,,,0.00,Acu-Link.com,2013-11-16 12:43:00,
2013-11-16 06:59:00,49.5,47.3,29.29,SSE,157,8.9,-999.0,92,-99.99,,,0.00,Acu-Link.com,2013-11-16 12:59:00,
2013-11-16 07:14:00,49.6,47.4,29.28,South,180,5.8,-999.0,92,-99.99,,,0.00,Acu-Link.com,2013-11-16 13:14:00,
2013-11-16 07:29:00,49.8,47.6,29.27,SSE,157,5.8,-999.0,92,-99.99,,,0.00,Acu-Link.com,2013-11-16 13:29:00,
2013-11-16 07:44:00,50.4,48.2,29.27,SSE,157,4.7,-999.0,92,-99.99,,,0.00,Acu-Link.com,2013-11-16 13:44:00,
2013-11-16 07:59:00,50.9,48.7,29.26,West,270,8.9,-999.0,92,-99.99,,,0.00,Acu-Link.com,2013-11-16 13:59:00,
2013-11-16 08:15:00,51.3,49.3,29.26,SSE,157,8.9,-999.0,93,-99.99,,,0.00,Acu-Link.com,2013-11-16 14:15:00,
2013-11-16 08:30:00,51.8,49.8,29.24,SSE,157,6.8,-999.0,93,-99.99,,,0.00,Acu-Link.com,2013-11-16 14:30:00,
2013-11-16 08:46:00,52.3,50.3,29.24,South,180,5.3,-999.0,93,-99.99,,,0.00,Acu-Link.com,2013-11-16 14:46:00,
2013-11-16 09:01:00,52.9,50.9,29.22,South,180,9.4,-999.0,93,-99.99,,,0.00,Acu-Link.com,2013-11-16 15:01:00,
2013-11-16 09:16:00,53.6,51.6,29.23,South,180,6.8,-999.0,93,-99.99,,,0.00,Acu-Link.com,2013-11-16 15:16:00,
2013-11-16 09:31:00,54.0,52.0,29.21,SSE,157,9.4,-999.0,93,-99.99,,,0.00,Acu-Link.com,2013-11-16 15:31:00,
2013-11-16 09:47:00,54.5,52.2,29.21,SSE,157,7.3,-999.0,92,-99.99,,,0.00,Acu-Link.com,2013-11-16 15:47:00,
2013-11-16 10:02:00,55.0,52.7,29.20,SSE,157,6.3,-999.0,92,-99.99,,,0.00,Acu-Link.com,2013-11-16 16:02:00,
2013-11-16 10:17:00,55.4,52.8,29.18,SSE,157,7.3,-999.0,91,-99.99,,,0.00,Acu-Link.com,2013-11-16 16:17:00,
2013-11-16 10:32:00,56.3,53.4,29.17,SSE,157,6.8,-999.0,90,-99.99,,,0.00,Acu-Link.com,2013-11-16 16:32:00,
2013-11-16 10:47:00,56.7,53.5,29.18,SSE,157,6.8,-999.0,89,-99.99,,,0.00,Acu-Link.com,2013-11-16 16:47:00,
2013-11-16 11:03:00,57.2,54.0,29.17,SSE,157,9.4,-999.0,89,-99.99,,,0.00,Acu-Link.com,2013-11-16 17:03:00,
2013-11-16 11:18:00,58.3,54.8,29.15,SSE,157,7.8,-999.0,88,-99.99,,,0.00,Acu-Link.com,2013-11-16 17:18:00,
2013-11-16 11:33:00,59.5,55.3,29.13,SSE,157,10.9,-999.0,86,-99.99,,,0.00,Acu-Link.com,2013-11-16 17:33:00,
2013-11-16 11:48:00,61.0,55.8,29.13,SSE,157,6.8,-999.0,83,-99.99,,,0.00,Acu-Link.com,2013-11-16 17:48:00,
2013-11-16 12:03:00,61.5,56.0,29.12,SE,135,9.9,-999.0,82,-99.99,,,0.00,Acu-Link.com,2013-11-16 18:03:00,
2013-11-16 12:19:00,61.9,56.3,29.06,SSE,157,8.9,-999.0,82,-99.99,,,0.00,Acu-Link.com,2013-11-16 18:19:00,
2013-11-16 12:34:00,62.8,57.9,29.09,South,180,5.3,-999.0,84,-99.99,,,0.00,Acu-Link.com,2013-11-16 18:34:00,
2013-11-16 12:49:00,63.3,57.7,29.06,SSE,157,13.0,-999.0,82,-99.99,,,0.00,Acu-Link.com,2013-11-16 18:49:00,
2013-11-16 13:04:00,63.9,57.6,29.06,SSW,202,11.4,-999.0,80,-99.99,,,0.00,Acu-Link.com,2013-11-16 19:04:00,
2013-11-16 13:20:00,64.2,57.9,29.07,SSW,202,8.9,-999.0,80,-99.99,,,0.00,Acu-Link.com,2013-11-16 19:20:00,
2013-11-16 13:35:00,64.4,57.7,29.06,East,90,6.3,-999.0,79,-99.99,,,0.00,Acu-Link.com,2013-11-16 19:35:00,
2013-11-16 13:50:00,63.9,58.0,29.06,SSW,202,4.2,-999.0,81,-99.99,,,0.00,Acu-Link.com,2013-11-16 19:50:00,
2013-11-16 14:06:00,63.5,57.9,29.06,North,0,7.3,-999.0,82,-99.99,,,0.00,Acu-Link.com,2013-11-16 20:06:00,
2013-11-16 14:21:00,63.3,58.0,29.05,South,180,8.3,-999.0,83,-99.99,,,0.00,Acu-Link.com,2013-11-16 20:21:00,
2013-11-16 14:36:00,63.3,58.0,29.04,South,180,5.3,-999.0,83,-99.99,,,0.00,Acu-Link.com,2013-11-16 20:36:00,
2013-11-16 14:51:00,63.7,58.4,29.02,ESE,112,9.4,-999.0,83,-99.99,,,0.00,Acu-Link.com,2013-11-16 20:51:00,
2013-11-16 15:07:00,64.4,58.4,29.04,SSE,157,5.8,-999.0,81,-99.99,,,0.00,Acu-Link.com,2013-11-16 21:07:00,
2013-11-16 15:23:00,64.4,58.4,29.04,SSW,202,7.3,-999.0,81,-99.99,,,0.00,Acu-Link.com,2013-11-16 21:23:00,
2013-11-16 15:38:00,64.2,57.9,29.04,SW,225,5.8,-999.0,80,-99.99,,,0.00,Acu-Link.com,2013-11-16 21:38:00,
2013-11-16 15:53:00,63.9,58.0,29.04,SSW,202,5.3,-999.0,81,-99.99,,,0.00,Acu-Link.com,2013-11-16 21:53:00,
2013-11-16 16:08:00,64.0,58.0,29.04,SSE,157,4.7,-999.0,81,-99.99,,,0.00,Acu-Link.com,2013-11-16 22:08:00,
2013-11-16 16:24:00,63.9,57.3,29.05,SE,135,4.7,-999.0,79,-99.99,,,0.00,Acu-Link.com,2013-11-16 22:24:00,
2013-11-16 16:39:00,63.3,56.7,29.04,SW,225,3.2,-999.0,79,-99.99,,,0.00,Acu-Link.com,2013-11-16 22:39:00,
2013-11-16 16:54:00,62.8,56.2,29.06,SSW,202,3.2,-999.0,79,-99.99,,,0.00,Acu-Link.com,2013-11-16 22:54:00,
2013-11-16 17:09:00,62.1,55.5,29.06,West,270,2.7,-999.0,79,-99.99,,,0.00,Acu-Link.com,2013-11-16 23:09:00,
2013-11-16 17:24:00,61.5,54.9,29.06,South,180,2.7,-999.0,79,-99.99,,,0.00,Acu-Link.com,2013-11-16 23:24:00,
2013-11-16 17:40:00,61.0,54.8,29.07,South,180,3.2,-999.0,80,-99.99,,,0.00,Acu-Link.com,2013-11-16 23:40:00,
2013-11-16 17:55:00,60.3,54.4,29.08,South,180,4.2,-999.0,81,-99.99,,,0.00,Acu-Link.com,2013-11-16 23:55:00,
2013-11-16 18:10:00,59.7,54.2,29.09,SSE,157,3.7,-999.0,82,-99.99,,,0.00,Acu-Link.com,2013-11-17 00:10:00,
2013-11-16 18:26:00,58.8,54.0,29.09,South,180,2.7,-999.0,84,-99.99,,,0.00,Acu-Link.com,2013-11-17 00:26:00,
2013-11-16 18:41:00,58.3,53.8,29.09,South,180,1.7,-999.0,85,-99.99,,,0.00,Acu-Link.com,2013-11-17 00:41:00,
2013-11-16 18:57:00,57.7,53.5,29.09,South,180,2.2,-999.0,86,-99.99,,,0.00,Acu-Link.com,2013-11-17 00:57:00,
2013-11-16 19:13:00,57.2,53.0,29.10,North,0,2.2,-999.0,86,-99.99,,,0.00,Acu-Link.com,2013-11-17 01:13:00,
2013-11-16 19:28:00,56.3,52.8,29.11,North,0,0.0,-999.0,88,-99.99,,,0.00,Acu-Link.com,2013-11-17 01:28:00,
2013-11-16 19:43:00,55.2,52.0,29.12,North,0,0.0,-999.0,89,-99.99,,,0.00,Acu-Link.com,2013-11-17 01:43:00,
2013-11-16 19:58:00,54.5,51.3,29.12,South,180,1.7,-999.0,89,-99.99,,,0.00,Acu-Link.com,2013-11-17 01:58:00,
2013-11-16 20:14:00,52.3,49.5,29.12,SE,135,0.0,-999.0,90,-99.99,,,0.00,Acu-Link.com,2013-11-17 02:14:00,
2013-11-16 20:29:00,51.3,49.1,29.13,South,180,0.0,-999.0,92,-99.99,,,0.00,Acu-Link.com,2013-11-17 02:29:00,
2013-11-16 20:44:00,50.2,47.4,29.14,NNW,337,1.7,-999.0,90,-99.99,,,0.00,Acu-Link.com,2013-11-17 02:44:00,
2013-11-16 20:59:00,49.1,46.6,29.14,NNW,337,0.0,-999.0,91,-99.99,,,0.00,Acu-Link.com,2013-11-17 02:59:00,
2013-11-16 21:15:00,48.2,46.0,29.15,NNW,337,0.0,-999.0,92,-99.99,,,0.00,Acu-Link.com,2013-11-17 03:15:00,
2013-11-16 21:30:00,48.6,45.8,29.14,NNW,337,0.0,-999.0,90,-99.99,,,0.00,Acu-Link.com,2013-11-17 03:30:00,
2013-11-16 21:45:00,47.8,45.0,29.14,NNW,337,0.0,-999.0,90,-99.99,,,0.00,Acu-Link.com,2013-11-17 03:45:00,
2013-11-16 22:00:00,47.3,44.8,29.13,NNW,337,0.0,-999.0,91,-99.99,,,0.00,Acu-Link.com,2013-11-17 04:00:00,
2013-11-16 22:16:00,45.1,42.9,29.13,NNW,337,0.0,-999.0,92,-99.99,,,0.00,Acu-Link.com,2013-11-17 04:16:00,
2013-11-16 22:31:00,44.6,43.5,29.12,NNW,337,2.2,-999.0,96,-99.99,,,0.00,Acu-Link.com,2013-11-17 04:31:00,
2013-11-16 22:47:00,43.5,41.6,29.12,NNW,337,0.0,-999.0,93,-99.99,,,0.00,Acu-Link.com,2013-11-17 04:47:00,
2013-11-16 23:02:00,43.0,41.7,29.13,NNW,337,0.0,-999.0,95,-99.99,,,0.00,Acu-Link.com,2013-11-17 05:02:00,
2013-11-16 23:17:00,40.6,39.6,29.13,NNW,337,0.0,-999.0,96,-99.99,,,0.00,Acu-Link.com,2013-11-17 05:17:00,
2013-11-16 23:33:00,41.5,41.0,29.13,NNW,337,0.0,-999.0,98,-99.99,,,0.00,Acu-Link.com,2013-11-17 05:33:00,
2013-11-16 23:48:00,41.5,41.0,29.13,NNW,337,0.0,-999.0,98,-99.99,,,0.00,Acu-Link.com,2013-11-17 05:48:00,